Staatsburg, NY (12580)

5:46 AM EDT on August 28, 2015 (GMT -0400)
Route 9G | | Change Station
CLOSE
Current Station
Personal Weather Station
Location: Staatsburg, NY
Elevation: 279 ft
Nearby Weather Stations

Elev 279 ft 41.85 °N, 73.89 °W | Updated 2 seconds ago

Clear
Clear
51.6 °F
Feels Like 51.6 °F
N
0.0
Wind Variable Wind from South
Gusts 0.0 mph

Today
High -- | Low -- °F
--% Chance of Precip.
Yesterday
High -- | Low -- °F
Precip. -- in
6:17 AM 7:36 PM
Waxing Gibbous, 97% visible
Pressure 30.13 in
Visibility 10.0 miles
Clouds Clear
Dew Point 51 °F
Humidity 99%
Rainfall 0.00 in
Snow Depth Not available.
UV 0.0 out of 12
Pollen 10.00 out of 12
Air Quality Not available.
Flu Activity Not available.
METAR KPOU 280853Z 00000KT 10SM CLR 12/11 A3014 RMK AO2 SLP202 T01220106 51004
Pressure 30.13 in
Visibility 10.0 miles
Clouds Clear
Dew Point 51 °F
Humidity 99%
Rainfall 0.00 in
Snow Depth Not available.
UV 0.0 out of 12
Pollen 10.00 out of 12
Air Quality Not available.
Flu Activity Not available.
METAR KPOU 280853Z 00000KT 10SM CLR 12/11 A3014 RMK AO2 SLP202 T01220106 51004

10-Day Weather Forecast

×

Almanac

Astronomy

Aug. 28, 2015 Rise Set
Actual Time
Civil Twilight
Nautical Twilight
Astronomical Twilight
Moon
Length of Visible Light
Length of Day
Tomorrow will be .
, % of the Moon is Illuminated

Today's Extremes

State Highs State Lows

Community

WunderPhotos

Upload Photos

1,850,352 photos uploaded!

WunderBlogs® & News

Nearby

Air Quality

  Air Quality AQ Index Pollutant
Not available.

Snow Depth

Station Depth Elevation

Earthquake Activity

City Distance Mag. Time & Date
Minimum magnitude displayed is 2.5.

Coastal Water Temperatures

Place Temperature

Stations

Nearby Weather Stations

Station Location Temp. Windchill Dew Point Humidity Wind Precip. Elev Updated Type